createdAt,value
2019-01-28T00:01:45.352Z,3.83
2019-01-28T00:04:16.136Z,3.77
2019-01-28T00:06:46.910Z,3.82
2019-01-28T00:09:17.668Z,3.85
2019-01-28T00:11:48.438Z,3.87
2019-01-28T00:14:19.224Z,3.85
2019-01-28T00:16:50.187Z,3.85
2019-01-28T00:19:20.980Z,3.88
2019-01-28T00:21:51.738Z,3.98
2019-01-28T00:24:22.532Z,3.90
2019-01-28T00:26:53.335Z,3.95
2019-01-28T00:29:24.416Z,3.92
2019-01-28T00:31:55.181Z,3.84
2019-01-28T00:34:25.965Z,3.91
2019-01-28T00:36:56.734Z,3.86
2019-01-28T00:39:27.508Z,3.88
2019-01-28T00:41:58.266Z,3.90
2019-01-28T00:44:29.056Z,3.81
2019-01-28T00:46:59.822Z,3.92
2019-01-28T00:49:30.618Z,3.88
2019-01-28T00:52:01.378Z,3.80
2019-01-28T00:54:32.151Z,3.78
2019-01-28T00:57:02.917Z,3.74
2019-01-28T00:59:33.684Z,3.75
2019-01-28T01:02:04.457Z,3.65
2019-01-28T01:04:35.234Z,3.67
2019-01-28T01:07:06.004Z,3.61
2019-01-28T01:09:36.981Z,3.66
2019-01-28T01:12:07.849Z,3.63
2019-01-28T01:14:38.628Z,3.65
2019-01-28T01:17:09.465Z,3.69
2019-01-28T01:19:40.219Z,3.59
2019-01-28T01:22:10.983Z,3.46
2019-01-28T01:24:41.745Z,3.32
2019-01-28T01:27:12.517Z,3.18
2019-01-28T01:29:43.289Z,3.10
2019-01-28T01:32:14.160Z,3.06
2019-01-28T01:34:44.940Z,2.97
2019-01-28T01:37:15.713Z,2.90
2019-01-28T01:39:46.491Z,2.84
2019-01-28T01:42:17.255Z,2.75
2019-01-28T01:44:48.023Z,2.74
2019-01-28T01:47:18.798Z,2.72
2019-01-28T01:49:49.582Z,2.69
2019-01-28T01:52:20.346Z,2.59
2019-01-28T01:54:51.360Z,2.53
2019-01-28T01:57:22.423Z,2.49
2019-01-28T01:59:53.201Z,2.49
2019-01-28T02:02:24.004Z,2.44
2019-01-28T02:04:54.773Z,2.41
2019-01-28T02:07:25.596Z,2.37
2019-01-28T02:09:56.376Z,2.31
2019-01-28T02:12:27.135Z,2.26
2019-01-28T02:14:57.902Z,2.21
2019-01-28T02:17:28.705Z,2.18
2019-01-28T02:19:59.480Z,2.16
2019-01-28T02:22:30.244Z,2.08
2019-01-28T02:25:01.055Z,2.10
2019-01-28T02:27:31.821Z,2.11
2019-01-28T02:30:05.995Z,2.09
2019-01-28T02:32:36.765Z,2.08
2019-01-28T02:35:08.267Z,2.08
2019-01-28T02:37:39.043Z,2.08
2019-01-28T02:40:16.609Z,2.02
2019-01-28T02:42:47.377Z,2.04
2019-01-28T02:45:18.157Z,1.99
2019-01-28T02:47:51.699Z,1.98
2019-01-28T02:50:22.487Z,1.89
2019-01-28T02:52:53.255Z,1.88
2019-01-28T02:55:24.042Z,1.79
2019-01-28T02:57:54.824Z,1.78
2019-01-28T03:00:25.605Z,1.74
2019-01-28T03:02:56.354Z,1.71
2019-01-28T03:05:27.110Z,1.68
2019-01-28T03:07:57.890Z,1.70
2019-01-28T03:10:28.653Z,1.73
2019-01-28T03:12:59.441Z,1.67
2019-01-28T03:15:30.200Z,1.56
2019-01-28T03:18:00.976Z,1.67
2019-01-28T03:20:31.749Z,1.64
2019-01-28T03:23:02.849Z,1.63
2019-01-28T03:25:33.611Z,1.62
2019-01-28T03:28:04.488Z,1.54
2019-01-28T03:30:35.295Z,1.55
2019-01-28T03:33:06.080Z,1.66
2019-01-28T03:35:36.836Z,1.59
2019-01-28T03:38:07.616Z,1.63
2019-01-28T03:40:38.378Z,1.68
2019-01-28T03:43:09.161Z,1.65
2019-01-28T03:45:39.930Z,1.62
2019-01-28T03:48:10.720Z,1.62
2019-01-28T03:50:41.492Z,1.64
2019-01-28T03:53:13.374Z,1.64
2019-01-28T03:55:44.181Z,1.59
2019-01-28T03:58:14.958Z,1.59
2019-01-28T04:00:45.733Z,1.57
2019-01-28T04:03:16.511Z,1.58
2019-01-28T04:05:47.261Z,1.60
2019-01-28T04:08:18.345Z,1.56
2019-01-28T04:10:49.114Z,1.65
2019-01-28T04:13:19.897Z,1.62
2019-01-28T04:15:50.758Z,1.62
2019-01-28T04:18:21.537Z,1.60
2019-01-28T04:20:52.290Z,1.50
2019-01-28T04:23:23.066Z,1.64
2019-01-28T04:25:53.832Z,1.55
2019-01-28T04:28:24.614Z,1.61
2019-01-28T04:30:55.379Z,1.47
2019-01-28T04:33:26.150Z,1.35
2019-01-28T04:35:56.916Z,1.27
2019-01-28T04:38:27.710Z,1.21
2019-01-28T04:40:58.446Z,1.11
2019-01-28T04:43:29.234Z,1.06
2019-01-28T04:46:00.003Z,1.01
2019-01-28T04:48:30.786Z,1.01
2019-01-28T04:51:01.563Z,1.07
2019-01-28T04:53:32.331Z,1.04
2019-01-28T04:56:03.207Z,1.09
2019-01-28T04:58:33.982Z,1.15
2019-01-28T05:01:04.751Z,1.13
2019-01-28T05:03:35.533Z,1.30
2019-01-28T05:06:06.292Z,1.38
2019-01-28T05:08:37.071Z,1.33
2019-01-28T05:11:07.834Z,1.27
2019-01-28T05:13:38.613Z,1.34
2019-01-28T05:16:09.394Z,1.41
2019-01-28T05:18:40.173Z,1.39
2019-01-28T05:21:10.939Z,1.48
2019-01-28T05:23:41.718Z,1.49
2019-01-28T05:26:12.476Z,1.42
2019-01-28T05:28:43.258Z,1.42
2019-01-28T05:31:14.030Z,1.36
2019-01-28T05:33:44.794Z,1.42
2019-01-28T05:36:15.558Z,1.42
2019-01-28T05:38:46.341Z,1.39
2019-01-28T05:41:17.123Z,1.37
2019-01-28T05:43:47.936Z,1.30
2019-01-28T05:46:18.806Z,1.42
2019-01-28T05:48:49.535Z,1.42
2019-01-28T05:51:20.292Z,1.46
2019-01-28T05:53:51.060Z,1.47
2019-01-28T05:56:21.827Z,1.42
2019-01-28T05:58:52.594Z,1.43
2019-01-28T06:01:23.354Z,1.45
2019-01-28T06:03:54.170Z,1.36
2019-01-28T06:06:24.938Z,1.44
2019-01-28T06:08:55.723Z,1.34
2019-01-28T06:11:26.484Z,1.36
2019-01-28T06:13:58.110Z,1.38
2019-01-28T06:16:28.873Z,1.41
2019-01-28T06:18:59.670Z,1.42
2019-01-28T06:21:30.440Z,1.37
2019-01-28T06:24:01.224Z,1.43
2019-01-28T06:26:32.002Z,1.49
2019-01-28T06:29:02.768Z,1.43
2019-01-28T06:31:33.560Z,1.54
2019-01-28T06:34:04.363Z,1.54
2019-01-28T06:36:35.166Z,1.51
2019-01-28T06:39:07.530Z,1.56
2019-01-28T06:41:38.385Z,1.56
2019-01-28T06:44:09.192Z,1.54
2019-01-28T06:46:39.953Z,1.55
2019-01-28T06:49:10.761Z,1.56
2019-01-28T06:51:41.523Z,1.63
2019-01-28T06:54:12.296Z,1.62
2019-01-28T06:56:43.069Z,1.66
2019-01-28T06:59:13.833Z,1.66
2019-01-28T07:01:44.601Z,1.74
2019-01-28T07:04:15.368Z,1.69
2019-01-28T07:06:46.382Z,1.71
2019-01-28T07:09:17.147Z,1.70
2019-01-28T07:11:47.967Z,1.79
2019-01-28T07:14:18.793Z,1.84
2019-01-28T07:16:49.580Z,1.78
2019-01-28T07:19:20.374Z,1.81
2019-01-28T07:21:51.141Z,1.83
2019-01-28T07:24:21.896Z,1.87
2019-01-28T07:26:52.910Z,1.88
2019-01-28T07:29:23.720Z,1.88
2019-01-28T07:31:54.508Z,1.86
2019-01-28T07:34:25.275Z,1.95
2019-01-28T07:36:56.130Z,1.93
2019-01-28T07:39:26.894Z,1.99
2019-01-28T07:41:57.679Z,2.05
2019-01-28T07:44:28.441Z,2.04
2019-01-28T07:46:59.278Z,2.08
2019-01-28T07:49:30.103Z,2.11
2019-01-28T07:52:00.936Z,2.17
2019-01-28T07:54:31.716Z,2.20
2019-01-28T07:57:02.584Z,2.18
2019-01-28T07:59:33.357Z,2.12
2019-01-28T08:02:04.223Z,2.17
2019-01-28T08:04:35.019Z,2.24
2019-01-28T08:07:05.886Z,2.25
2019-01-28T08:09:36.646Z,2.16
2019-01-28T08:12:07.525Z,2.24
2019-01-28T08:14:38.288Z,2.23
2019-01-28T08:17:09.058Z,2.19
2019-01-28T08:19:39.967Z,2.21
2019-01-28T08:22:12.403Z,2.35
2019-01-28T08:24:43.362Z,2.30
2019-01-28T08:27:14.239Z,2.17
2019-01-28T08:29:45.001Z,2.08
2019-01-28T08:32:16.807Z,2.08
2019-01-28T08:34:47.588Z,2.18
2019-01-28T08:37:18.363Z,2.27
2019-01-28T08:39:49.120Z,2.30
2019-01-28T08:42:19.926Z,2.40
2019-01-28T08:44:50.690Z,2.44
2019-01-28T08:47:21.462Z,2.66
2019-01-28T08:49:52.232Z,2.81
2019-01-28T08:52:23.058Z,2.88
2019-01-28T08:54:53.837Z,3.06
2019-01-28T08:57:24.634Z,3.06
2019-01-28T08:59:55.391Z,3.28
2019-01-28T09:02:26.172Z,3.44
2019-01-28T09:04:56.934Z,3.27
2019-01-28T09:07:27.705Z,3.26
2019-01-28T09:09:58.494Z,3.34
2019-01-28T09:12:29.329Z,3.44
2019-01-28T09:15:00.184Z,3.62
2019-01-28T09:17:31.107Z,3.51
2019-01-28T09:20:05.478Z,3.55
2019-01-28T09:22:36.256Z,3.48
2019-01-28T09:25:09.957Z,3.53
2019-01-28T09:27:40.799Z,3.64
2019-01-28T09:30:21.006Z,3.73
2019-01-28T09:32:51.790Z,3.75
2019-01-28T09:35:22.843Z,4.03
2019-01-28T09:37:54.023Z,3.87
2019-01-28T09:40:33.599Z,3.81
2019-01-28T09:43:05.763Z,3.82
2019-01-28T09:45:38.633Z,3.91
2019-01-28T09:48:11.410Z,3.76
2019-01-28T09:50:42.494Z,3.90
2019-01-28T09:53:13.668Z,3.90
2019-01-28T09:55:44.450Z,3.99
2019-01-28T09:58:15.315Z,3.90
2019-01-28T10:00:47.074Z,3.84
2019-01-28T10:03:17.882Z,4.02
2019-01-28T10:05:48.747Z,3.98
2019-01-28T10:08:19.511Z,4.15
2019-01-28T10:10:50.317Z,4.29
2019-01-28T10:13:21.174Z,4.62
2019-01-28T10:15:51.981Z,4.81
2019-01-28T10:18:22.763Z,4.62
2019-01-28T10:20:53.617Z,4.77
2019-01-28T10:23:26.106Z,4.45
2019-01-28T10:25:58.985Z,4.18
2019-01-28T10:28:29.750Z,4.28
2019-01-28T10:31:00.516Z,4.08
2019-01-28T10:33:31.337Z,4.26
2019-01-28T10:36:02.564Z,4.04
2019-01-28T10:38:33.421Z,4.02
2019-01-28T10:41:04.275Z,3.96
2019-01-28T10:43:35.070Z,3.83
2019-01-28T10:46:05.841Z,3.75
2019-01-28T10:48:36.594Z,3.61
2019-01-28T10:51:07.472Z,3.62
2019-01-28T10:53:38.206Z,3.70
2019-01-28T10:56:08.974Z,3.71
2019-01-28T10:58:39.779Z,3.72
2019-01-28T11:01:10.660Z,3.74
2019-01-28T11:03:41.423Z,3.57
2019-01-28T11:06:12.211Z,3.59
2019-01-28T11:08:42.989Z,3.62
2019-01-28T11:11:13.803Z,3.66
2019-01-28T11:13:44.806Z,3.73
2019-01-28T11:16:15.632Z,3.75
2019-01-28T11:18:46.392Z,3.70
2019-01-28T11:21:17.200Z,3.85
2019-01-28T11:23:48.122Z,4.11
2019-01-28T11:26:19.139Z,4.27
2019-01-28T11:28:49.970Z,4.16
2019-01-28T11:31:20.686Z,4.01
2019-01-28T11:33:51.533Z,3.88
2019-01-28T11:36:22.328Z,3.80
2019-01-28T11:38:53.220Z,3.76
2019-01-28T11:41:24.140Z,3.70
2019-01-28T11:43:54.916Z,3.72
2019-01-28T11:46:25.697Z,3.77
2019-01-28T11:48:56.490Z,3.73
2019-01-28T11:51:27.241Z,3.82
2019-01-28T11:53:58.083Z,3.78
2019-01-28T11:56:28.859Z,3.88
2019-01-28T11:58:59.725Z,3.72
2019-01-28T12:01:30.849Z,3.82
2019-01-28T12:04:01.630Z,3.94
2019-01-28T12:06:32.505Z,4.02
2019-01-28T12:09:05.972Z,4.12
2019-01-28T12:11:36.819Z,4.02
2019-01-28T12:14:07.588Z,4.11
2019-01-28T12:16:38.389Z,4.23
2019-01-28T12:19:14.089Z,4.02
2019-01-28T12:21:41.963Z,3.97
2019-01-28T12:24:12.729Z,3.97
2019-01-28T12:26:43.579Z,3.98
2019-01-28T12:29:14.418Z,4.04
2019-01-28T12:31:45.188Z,4.17
2019-01-28T12:34:15.954Z,4.07
2019-01-28T12:36:46.729Z,4.05
2019-01-28T12:39:17.538Z,4.22
2019-01-28T12:41:48.387Z,3.95
2019-01-28T12:44:19.219Z,3.89
2019-01-28T12:46:50.109Z,3.98
2019-01-28T12:49:22.110Z,4.04
2019-01-28T12:51:53.195Z,3.96
2019-01-28T12:54:23.998Z,4.09
2019-01-28T12:56:54.777Z,4.03
2019-01-28T12:59:25.561Z,4.01
2019-01-28T13:01:56.415Z,3.92
2019-01-28T13:04:27.178Z,3.85
2019-01-28T13:06:57.985Z,3.83
2019-01-28T13:09:29.026Z,3.80
2019-01-28T13:11:59.800Z,3.81
2019-01-28T13:14:30.602Z,3.79
2019-01-28T13:17:01.478Z,3.79
2019-01-28T13:19:32.282Z,3.81
2019-01-28T13:22:03.309Z,3.79
2019-01-28T13:24:34.069Z,3.71
2019-01-28T13:27:04.891Z,3.63
2019-01-28T13:29:41.423Z,3.67
2019-01-28T13:32:12.206Z,3.69
2019-01-28T13:34:42.969Z,3.61
2019-01-28T13:37:13.761Z,3.64
2019-01-28T13:39:44.547Z,3.60
2019-01-28T13:42:15.314Z,3.59
2019-01-28T13:44:46.797Z,3.61
2019-01-28T13:47:17.632Z,3.61
2019-01-28T13:49:49.151Z,3.64
2019-01-28T13:52:20.739Z,3.66
2019-01-28T13:54:52.355Z,3.69
2019-01-28T13:57:23.136Z,3.68
2019-01-28T13:59:53.892Z,3.83
2019-01-28T14:02:24.668Z,4.08
2019-01-28T14:04:55.513Z,4.16
2019-01-28T14:07:26.357Z,3.99
2019-01-28T14:09:57.183Z,3.99
2019-01-28T14:12:27.971Z,3.92
2019-01-28T14:14:58.766Z,3.78
2019-01-28T14:17:29.938Z,3.78
2019-01-28T14:20:00.738Z,3.74
2019-01-28T14:22:31.576Z,3.77
2019-01-28T14:25:03.393Z,3.48
2019-01-28T14:27:34.171Z,3.38
2019-01-28T14:30:08.751Z,3.26
2019-01-28T14:32:39.543Z,3.35
2019-01-28T14:35:10.557Z,3.11
2019-01-28T14:37:41.421Z,3.08
2019-01-28T14:40:15.664Z,3.01
2019-01-28T14:42:46.469Z,2.93
2019-01-28T14:45:17.295Z,2.88
2019-01-28T14:47:48.135Z,2.80
2019-01-28T14:50:25.958Z,2.64
2019-01-28T14:52:56.877Z,2.60
2019-01-28T14:55:27.859Z,2.51
2019-01-28T14:57:58.884Z,2.51
2019-01-28T15:00:35.264Z,2.43
2019-01-28T15:03:06.061Z,2.32
2019-01-28T15:05:37.096Z,2.27
2019-01-28T15:08:07.896Z,2.28
2019-01-28T15:10:38.928Z,2.18
2019-01-28T15:13:09.938Z,2.14
2019-01-28T15:15:40.843Z,2.11
2019-01-28T15:18:12.108Z,2.00
2019-01-28T15:20:43.209Z,1.95
2019-01-28T15:23:13.987Z,1.96
2019-01-28T15:25:45.076Z,1.87
2019-01-28T15:28:15.945Z,1.86
2019-01-28T15:30:46.774Z,1.83
2019-01-28T15:33:17.693Z,1.69
2019-01-28T15:35:48.588Z,1.64
2019-01-28T15:38:19.563Z,1.55
2019-01-28T15:40:50.747Z,1.52
2019-01-28T15:43:24.327Z,1.45
2019-01-28T15:45:55.479Z,1.39
2019-01-28T15:48:26.748Z,1.29
2019-01-28T15:50:57.718Z,1.26
2019-01-28T15:53:28.659Z,1.25
2019-01-28T15:55:59.861Z,1.22
2019-01-28T15:58:31.022Z,1.15
2019-01-28T16:01:02.228Z,1.18
2019-01-28T16:03:33.128Z,1.22
2019-01-28T16:06:04.227Z,1.22
2019-01-28T16:08:35.158Z,1.26
2019-01-28T16:11:06.182Z,1.24
2019-01-28T16:13:37.260Z,1.29
2019-01-28T16:16:08.515Z,1.32
2019-01-28T16:18:39.678Z,1.28
2019-01-28T16:21:11.055Z,1.28
2019-01-28T16:23:42.146Z,1.27
2019-01-28T16:26:13.740Z,1.21
2019-01-28T16:28:45.189Z,1.28
2019-01-28T16:31:16.839Z,1.35
2019-01-28T16:33:48.059Z,1.40
2019-01-28T16:36:19.632Z,1.39
2019-01-28T16:38:51.085Z,1.38
2019-01-28T16:41:22.549Z,1.43
2019-01-28T16:43:53.840Z,1.39
2019-01-28T16:46:25.436Z,1.37
2019-01-28T16:48:56.921Z,1.33
2019-01-28T16:51:28.266Z,1.28
2019-01-28T16:53:59.440Z,1.31
2019-01-28T16:56:31.171Z,1.34
2019-01-28T16:59:02.893Z,1.28
2019-01-28T17:01:34.375Z,1.34
2019-01-28T17:04:06.099Z,1.35
2019-01-28T17:06:37.767Z,1.28
2019-01-28T17:09:09.752Z,1.33
2019-01-28T17:11:41.325Z,1.34
2019-01-28T17:14:12.776Z,1.31
2019-01-28T17:16:44.283Z,1.25
2019-01-28T17:19:15.540Z,1.24
2019-01-28T17:21:47.123Z,1.27
2019-01-28T17:24:18.625Z,1.23
2019-01-28T17:26:50.257Z,1.20
2019-01-28T17:29:21.630Z,1.26
2019-01-28T17:31:52.772Z,1.29
2019-01-28T17:34:23.861Z,1.27
2019-01-28T17:36:55.098Z,1.27
2019-01-28T17:39:26.331Z,1.30
2019-01-28T17:41:57.670Z,1.26
2019-01-28T17:44:29.033Z,1.26
2019-01-28T17:47:00.470Z,1.19
2019-01-28T17:49:31.682Z,1.19
2019-01-28T17:52:03.166Z,1.18
2019-01-28T17:54:34.711Z,1.10
2019-01-28T17:57:05.951Z,1.10
2019-01-28T17:59:37.062Z,1.10
2019-01-28T18:02:08.503Z,1.10
2019-01-28T18:04:40.098Z,1.09
2019-01-28T18:07:11.663Z,1.08
2019-01-28T18:09:43.000Z,1.11
2019-01-28T18:12:14.469Z,1.06
2019-01-28T18:14:45.794Z,1.11
2019-01-28T18:17:17.532Z,1.11
2019-01-28T18:19:49.114Z,1.07
2019-01-28T18:22:20.780Z,1.07
2019-01-28T18:24:52.321Z,1.04
2019-01-28T18:27:23.996Z,1.06
2019-01-28T18:29:55.657Z,1.07
2019-01-28T18:32:27.176Z,1.10
2019-01-28T18:34:58.533Z,1.11
2019-01-28T18:37:30.244Z,1.09
2019-01-28T18:40:01.751Z,1.05
2019-01-28T18:42:33.418Z,1.05
2019-01-28T18:45:08.381Z,1.08
2019-01-28T18:47:39.924Z,1.04
2019-01-28T18:50:14.655Z,1.02
2019-01-28T18:52:46.231Z,1.03
2019-01-28T18:55:19.140Z,0.99
2019-01-28T18:57:51.019Z,1.00
2019-01-28T19:00:29.776Z,1.00
2019-01-28T19:03:02.112Z,1.02
2019-01-28T19:05:47.251Z,1.00
2019-01-28T19:08:39.630Z,0.99
2019-01-28T19:11:18.835Z,0.94
2019-01-28T19:13:54.588Z,0.96
2019-01-28T19:16:36.673Z,0.98
2019-01-28T19:19:12.366Z,0.95
2019-01-28T19:21:51.145Z,0.98
2019-01-28T19:24:22.830Z,0.97
2019-01-28T19:26:54.892Z,0.97
2019-01-28T19:29:26.680Z,0.96
2019-01-28T19:31:58.707Z,0.98
2019-01-28T19:34:30.729Z,0.90
2019-01-28T19:37:02.844Z,0.92
2019-01-28T19:39:34.722Z,0.93
2019-01-28T19:42:06.519Z,0.93
2019-01-28T19:44:38.337Z,0.90
2019-01-28T19:47:10.052Z,0.93
2019-01-28T19:49:43.794Z,0.92
2019-01-28T19:52:15.748Z,0.94
2019-01-28T19:54:47.721Z,1.00
2019-01-28T19:57:19.581Z,0.94
2019-01-28T19:59:51.341Z,0.95
2019-01-28T20:02:22.952Z,0.94
2019-01-28T20:04:54.856Z,0.97
2019-01-28T20:07:26.892Z,0.57
2019-01-28T20:09:58.595Z,0.94
2019-01-28T20:12:30.284Z,0.99
2019-01-28T20:15:02.094Z,0.99
2019-01-28T20:17:33.852Z,0.92
2019-01-28T20:20:09.917Z,0.99
2019-01-28T20:22:41.467Z,1.00
2019-01-28T20:25:15.499Z,0.94
2019-01-28T20:27:47.359Z,0.94
2019-01-28T20:30:27.556Z,0.92
2019-01-28T20:32:59.538Z,0.92
2019-01-28T20:35:31.432Z,0.93
2019-01-28T20:38:03.366Z,0.97
2019-01-28T20:40:35.393Z,0.93
2019-01-28T20:43:07.207Z,0.99
2019-01-28T20:45:44.919Z,0.94
2019-01-28T20:48:12.782Z,0.97
2019-01-28T20:50:44.504Z,0.92
2019-01-28T20:53:16.408Z,0.90
2019-01-28T20:55:48.069Z,0.87
2019-01-28T20:58:19.704Z,0.89
2019-01-28T21:00:51.293Z,0.86
2019-01-28T21:03:23.102Z,0.86
2019-01-28T21:05:55.086Z,0.91
2019-01-28T21:08:26.769Z,0.94
2019-01-28T21:10:58.406Z,0.96
2019-01-28T21:13:30.076Z,0.88
2019-01-28T21:16:01.854Z,0.98
2019-01-28T21:18:33.348Z,1.02
2019-01-28T21:21:05.065Z,1.02
2019-01-28T21:23:36.656Z,1.01
2019-01-28T21:26:08.165Z,1.00
2019-01-28T21:28:39.862Z,1.01
2019-01-28T21:31:11.436Z,1.01
2019-01-28T21:33:42.896Z,1.04
2019-01-28T21:36:18.296Z,1.07
2019-01-28T21:38:49.779Z,1.08
2019-01-28T21:41:21.121Z,1.04
2019-01-28T21:43:52.287Z,1.00
2019-01-28T21:46:23.501Z,1.04
2019-01-28T21:48:54.848Z,1.06
2019-01-28T21:51:28.173Z,1.02
2019-01-28T21:53:59.858Z,1.04
2019-01-28T21:56:30.961Z,1.04
2019-01-28T21:59:02.144Z,1.03
2019-01-28T22:01:33.380Z,1.09
2019-01-28T22:04:04.894Z,1.04
2019-01-28T22:06:36.052Z,1.09
2019-01-28T22:09:07.594Z,1.10
2019-01-28T22:11:38.555Z,1.07
2019-01-28T22:14:09.611Z,1.07
2019-01-28T22:16:40.530Z,1.11
2019-01-28T22:19:11.349Z,1.13
2019-01-28T22:21:42.257Z,1.16
2019-01-28T22:24:13.026Z,1.18
2019-01-28T22:26:43.843Z,1.14
2019-01-28T22:29:14.796Z,1.17
2019-01-28T22:31:47.526Z,1.22
2019-01-28T22:34:18.309Z,1.21
2019-01-28T22:36:49.083Z,1.28
2019-01-28T22:39:19.975Z,1.25
2019-01-28T22:41:50.760Z,1.27
2019-01-28T22:44:21.528Z,1.30
2019-01-28T22:46:52.748Z,1.30
2019-01-28T22:49:23.613Z,1.31
2019-01-28T22:51:54.383Z,1.26
2019-01-28T22:54:25.482Z,1.22
2019-01-28T22:56:56.242Z,1.21
2019-01-28T22:59:27.151Z,1.30
2019-01-28T23:01:58.007Z,1.23
2019-01-28T23:04:28.863Z,1.25
2019-01-28T23:06:59.719Z,1.19
2019-01-28T23:09:30.518Z,1.17
2019-01-28T23:12:01.305Z,1.18
2019-01-28T23:14:32.120Z,1.19
2019-01-28T23:17:03.239Z,1.17
2019-01-28T23:19:34.025Z,1.15
2019-01-28T23:22:04.806Z,1.12
2019-01-28T23:24:35.621Z,1.10
2019-01-28T23:27:06.921Z,1.04
2019-01-28T23:29:37.717Z,1.00
2019-01-28T23:32:08.497Z,0.97
2019-01-28T23:34:39.385Z,0.97
2019-01-28T23:37:10.152Z,1.01
2019-01-28T23:39:40.968Z,1.01
2019-01-28T23:42:11.936Z,1.09
2019-01-28T23:44:42.744Z,1.01
2019-01-28T23:47:13.522Z,1.07
2019-01-28T23:49:44.314Z,1.03
2019-01-28T23:52:15.084Z,1.06
2019-01-28T23:54:45.874Z,1.13
2019-01-28T23:57:16.699Z,1.15
2019-01-28T23:59:47.500Z,1.15
